createdAt,value
2018-10-05T00:06:12.304Z,69.30
2018-10-05T00:11:12.079Z,70.20
2018-10-05T00:13:40.223Z,69.80
2018-10-05T00:21:04.405Z,71.00
2018-10-05T00:23:32.385Z,70.70
2018-10-05T00:26:00.555Z,70.90
2018-10-05T00:28:29.821Z,71.00
2018-10-05T00:30:57.980Z,71.30
2018-10-05T00:33:26.273Z,71.10
2018-10-05T00:35:54.337Z,70.90
2018-10-05T00:38:23.381Z,71.70
2018-10-05T00:43:22.308Z,72.90
2018-10-05T00:45:50.323Z,73.60
2018-10-05T00:48:18.469Z,73.80
2018-10-05T00:50:46.464Z,73.80
2018-10-05T00:53:14.648Z,74.10
2018-10-05T00:55:42.642Z,74.50
2018-10-05T00:58:10.637Z,74.60
2018-10-05T01:00:38.868Z,74.30
2018-10-05T01:05:34.991Z,74.40
2018-10-05T01:08:03.296Z,74.10
2018-10-05T01:12:59.473Z,74.90
2018-10-05T01:15:27.513Z,75.20
2018-10-05T01:17:55.684Z,74.80
2018-10-05T01:20:23.979Z,74.80
2018-10-05T01:22:52.188Z,74.70
2018-10-05T01:27:48.222Z,75.00
2018-10-05T01:30:16.327Z,75.40
2018-10-05T01:32:44.584Z,75.90
2018-10-05T01:38:44.336Z,75.40
2018-10-05T01:41:12.868Z,76.00
2018-10-05T01:43:41.071Z,76.90
2018-10-05T01:48:37.771Z,77.20
2018-10-05T01:51:06.422Z,77.20
2018-10-05T01:53:35.282Z,77.20
2018-10-05T01:56:03.324Z,76.70
2018-10-05T01:58:33.459Z,76.70
2018-10-05T02:01:01.696Z,76.60
2018-10-05T02:03:29.980Z,77.00
2018-10-05T02:05:58.297Z,77.10
2018-10-05T02:08:26.417Z,77.00
2018-10-05T02:13:22.553Z,76.90
2018-10-05T02:15:50.648Z,76.80
2018-10-05T02:18:18.746Z,76.80
2018-10-05T02:20:47.491Z,76.60
2018-10-05T02:23:15.791Z,76.70
2018-10-05T02:25:43.834Z,77.10
2018-10-05T02:28:13.452Z,77.10
2018-10-05T02:30:41.504Z,77.10
2018-10-05T02:33:09.688Z,77.10
2018-10-05T02:35:37.643Z,76.90
2018-10-05T02:38:05.730Z,77.30
2018-10-05T02:40:33.687Z,77.60
2018-10-05T02:43:02.399Z,77.60
2018-10-05T02:45:30.609Z,77.40
2018-10-05T02:52:54.473Z,77.60
2018-10-05T02:57:51.442Z,77.40
2018-10-05T03:00:30.870Z,77.40
2018-10-05T03:05:27.141Z,77.30
2018-10-05T03:07:55.252Z,77.40
2018-10-05T03:10:23.568Z,77.60
2018-10-05T03:12:51.645Z,77.60
2018-10-05T03:27:40.117Z,77.90
2018-10-05T03:30:08.828Z,77.60
2018-10-05T03:32:37.136Z,77.80
2018-10-05T03:37:33.272Z,76.90
2018-10-05T03:42:29.304Z,77.80
2018-10-05T03:44:57.460Z,78.10
2018-10-05T03:47:29.271Z,78.40
2018-10-05T03:49:57.293Z,78.60
2018-10-05T03:54:53.447Z,78.60
2018-10-05T03:57:21.543Z,78.70
2018-10-05T04:07:14.761Z,78.10
2018-10-05T04:09:44.009Z,78.10
2018-10-05T04:12:12.137Z,78.50
2018-10-05T04:14:40.136Z,79.00
2018-10-05T04:17:08.229Z,79.10
2018-10-05T04:22:04.444Z,79.10
2018-10-05T04:24:32.460Z,79.60
2018-10-05T04:29:28.637Z,79.60
2018-10-05T04:31:56.647Z,79.60
2018-10-05T04:36:53.243Z,79.10
2018-10-05T04:39:21.464Z,79.60
2018-10-05T04:44:17.662Z,79.50
2018-10-05T04:49:13.803Z,80.00
2018-10-05T04:54:10.007Z,78.70
2018-10-05T04:59:05.904Z,78.80
2018-10-05T05:01:34.099Z,78.70
2018-10-05T05:04:02.281Z,77.60
2018-10-05T05:06:30.645Z,77.80
2018-10-05T05:08:59.034Z,78.50
2018-10-05T05:11:27.024Z,77.90
2018-10-05T05:16:23.190Z,77.30
2018-10-05T05:18:51.238Z,77.20
2018-10-05T05:26:15.536Z,76.90
2018-10-05T05:28:43.540Z,76.50
2018-10-05T05:36:08.299Z,76.00
2018-10-05T05:38:36.745Z,75.70
2018-10-05T05:46:00.960Z,72.50
2018-10-05T05:48:29.098Z,71.60
2018-10-05T05:50:57.520Z,69.60
2018-10-05T05:53:25.785Z,68.40
2018-10-05T05:55:53.874Z,67.50
2018-10-05T05:58:23.179Z,66.40
2018-10-05T06:00:51.334Z,65.60
2018-10-05T06:05:47.169Z,63.10
2018-10-05T06:08:15.649Z,61.10
2018-10-05T06:10:43.799Z,59.20
2018-10-05T06:13:11.905Z,57.10
2018-10-05T06:15:39.976Z,55.60
2018-10-05T06:18:09.374Z,53.70
2018-10-05T06:23:05.493Z,51.20
2018-10-05T06:25:33.789Z,49.90
2018-10-05T06:28:01.830Z,48.60
2018-10-05T06:30:29.978Z,48.10
2018-10-05T06:32:58.029Z,46.80
2018-10-05T06:35:26.420Z,46.40
2018-10-05T06:37:54.511Z,46.00
2018-10-05T06:40:22.508Z,45.20
2018-10-05T06:45:22.015Z,43.30
2018-10-05T06:47:50.108Z,42.10
2018-10-05T06:50:18.152Z,41.10
2018-10-05T06:52:46.289Z,41.70
2018-10-05T06:55:14.344Z,41.40
2018-10-05T06:57:42.383Z,40.50
2018-10-05T07:00:10.505Z,40.20
2018-10-05T07:02:38.523Z,39.80
2018-10-05T07:05:06.633Z,39.10
2018-10-05T07:10:02.864Z,39.10
2018-10-05T07:17:27.175Z,37.60
2018-10-05T07:19:55.320Z,38.10
2018-10-05T07:22:23.499Z,38.10
2018-10-05T07:24:51.773Z,37.40
2018-10-05T07:27:19.981Z,37.90
2018-10-05T07:29:47.981Z,36.50
2018-10-05T07:32:16.018Z,35.90
2018-10-05T07:37:12.199Z,34.60
2018-10-05T07:39:40.526Z,34.40
2018-10-05T07:42:08.576Z,33.70
2018-10-05T07:44:36.736Z,33.50
2018-10-05T07:52:00.989Z,32.90
2018-10-05T07:56:57.032Z,31.70
2018-10-05T07:59:26.332Z,32.00
2018-10-05T08:01:54.476Z,32.60
2018-10-05T08:04:22.790Z,32.70
2018-10-05T08:06:50.861Z,32.70
2018-10-05T08:09:18.901Z,31.90
2018-10-05T08:14:15.078Z,31.30
2018-10-05T08:16:43.108Z,31.50
2018-10-05T08:19:11.249Z,32.00
2018-10-05T08:26:35.455Z,32.10
2018-10-05T08:29:03.484Z,31.40
2018-10-05T08:33:59.666Z,31.60
2018-10-05T08:36:27.692Z,31.30
2018-10-05T08:38:55.637Z,31.70
2018-10-05T08:41:23.844Z,32.40
2018-10-05T08:43:53.158Z,32.80
2018-10-05T08:46:21.197Z,32.10
2018-10-05T08:48:49.678Z,31.30
2018-10-05T08:51:17.969Z,31.50
2018-10-05T08:58:42.152Z,33.00
2018-10-05T09:03:37.993Z,33.00
2018-10-05T09:06:06.088Z,32.80
2018-10-05T09:08:34.445Z,33.50
2018-10-05T09:11:02.593Z,34.90
2018-10-05T09:13:30.579Z,35.30
2018-10-05T09:20:54.496Z,33.30
2018-10-05T09:23:22.616Z,33.00
2018-10-05T09:25:50.593Z,32.70
2018-10-05T09:30:46.873Z,32.40
2018-10-05T09:35:43.919Z,32.10
2018-10-05T09:38:13.143Z,31.80
2018-10-05T09:40:41.119Z,32.20
2018-10-05T09:43:09.104Z,31.90
2018-10-05T09:45:37.365Z,32.30
2018-10-05T09:48:05.520Z,32.90
2018-10-05T09:50:33.660Z,33.20
2018-10-05T09:53:01.868Z,33.00
2018-10-05T10:03:00.735Z,32.70
2018-10-05T10:05:28.998Z,32.00
2018-10-05T10:07:57.117Z,31.20
2018-10-05T10:10:25.217Z,31.40
2018-10-05T10:12:53.204Z,31.60
2018-10-05T10:15:21.272Z,31.00
2018-10-05T10:17:49.264Z,30.30
2018-10-05T10:20:17.553Z,30.60
2018-10-05T10:22:45.850Z,31.10
2018-10-05T10:25:13.868Z,30.50
2018-10-05T10:27:42.888Z,30.90
2018-10-05T10:30:10.937Z,30.90
2018-10-05T10:35:06.951Z,30.70
2018-10-05T10:37:35.248Z,30.30
2018-10-05T10:47:27.453Z,30.60
2018-10-05T10:49:55.502Z,30.80
2018-10-05T10:54:51.648Z,31.60
2018-10-05T10:57:19.776Z,32.30
2018-10-05T11:02:15.564Z,32.50
2018-10-05T11:04:43.918Z,32.70
2018-10-05T11:07:11.998Z,33.00
2018-10-05T11:09:40.254Z,33.60
2018-10-05T11:14:36.272Z,34.20
2018-10-05T11:17:04.373Z,34.50
2018-10-05T11:19:32.686Z,34.20
2018-10-05T11:22:00.766Z,34.30
2018-10-05T11:26:56.811Z,36.80
2018-10-05T11:29:24.974Z,36.90
2018-10-05T11:31:53.140Z,37.20
2018-10-05T11:34:21.401Z,37.30
2018-10-05T11:39:17.560Z,35.60
2018-10-05T11:44:14.307Z,36.00
2018-10-05T11:46:42.520Z,36.30
2018-10-05T11:51:38.500Z,38.50
2018-10-05T11:54:06.599Z,38.40
2018-10-05T11:56:34.689Z,38.10
2018-10-05T11:59:02.757Z,37.90
2018-10-05T12:01:30.873Z,37.20
2018-10-05T12:06:26.833Z,37.50
2018-10-05T12:08:55.004Z,38.30
2018-10-05T12:11:23.074Z,38.20
2018-10-05T12:13:51.269Z,37.90
2018-10-05T12:16:19.217Z,37.50
2018-10-05T12:18:47.315Z,37.20
2018-10-05T12:21:15.408Z,37.70
2018-10-05T12:23:43.545Z,37.20
2018-10-05T12:28:39.586Z,37.20
2018-10-05T12:31:07.613Z,36.90
2018-10-05T12:36:04.036Z,37.30
2018-10-05T12:38:32.160Z,37.60
2018-10-05T12:43:28.628Z,38.50
2018-10-05T12:45:56.724Z,39.10
2018-10-05T12:48:24.790Z,39.90
2018-10-05T12:50:52.830Z,39.60
2018-10-05T12:53:20.943Z,39.80
2018-10-05T12:55:48.932Z,39.40
2018-10-05T12:58:17.245Z,39.70
2018-10-05T13:00:45.507Z,39.60
2018-10-05T13:03:13.798Z,39.70
2018-10-05T13:08:09.956Z,38.90
2018-10-05T13:10:38.037Z,39.10
2018-10-05T13:13:06.304Z,39.00
2018-10-05T13:15:34.521Z,38.80
2018-10-05T13:18:02.561Z,39.80
2018-10-05T13:22:58.724Z,40.10
2018-10-05T13:25:26.780Z,40.90
2018-10-05T13:27:54.840Z,40.30
2018-10-05T13:30:22.880Z,40.00
2018-10-05T13:32:51.476Z,40.20
2018-10-05T13:35:19.639Z,40.10
2018-10-05T13:37:47.647Z,40.40
2018-10-05T13:40:15.817Z,41.00
2018-10-05T13:42:43.896Z,41.00
2018-10-05T13:45:11.939Z,41.10
2018-10-05T13:47:40.015Z,41.90
2018-10-05T13:50:10.352Z,41.40
2018-10-05T13:57:34.147Z,41.60
2018-10-05T14:00:02.300Z,41.50
2018-10-05T14:07:26.831Z,42.20
2018-10-05T14:09:55.117Z,42.60
2018-10-05T14:12:23.203Z,42.40
2018-10-05T14:14:51.266Z,42.80
2018-10-05T14:17:19.321Z,42.40
2018-10-05T14:22:15.495Z,43.00
2018-10-05T14:24:43.627Z,42.90
2018-10-05T14:27:11.635Z,43.10
2018-10-05T14:29:39.673Z,43.30
2018-10-05T14:32:07.804Z,43.10
2018-10-05T14:37:03.944Z,43.80
2018-10-05T14:39:32.001Z,44.30
2018-10-05T14:42:00.108Z,44.30
2018-10-05T14:44:28.063Z,45.10
2018-10-05T14:46:56.164Z,44.30
2018-10-05T14:51:52.331Z,44.50
2018-10-05T14:54:20.396Z,44.70
2018-10-05T14:56:48.523Z,45.20
2018-10-05T14:59:16.667Z,44.90
2018-10-05T15:01:44.923Z,45.60
2018-10-05T15:04:12.968Z,45.60
2018-10-05T15:06:41.075Z,45.80
2018-10-05T15:09:09.105Z,45.90
2018-10-05T15:19:01.407Z,47.00
2018-10-05T15:21:29.636Z,47.10
2018-10-05T15:23:57.961Z,47.70
2018-10-05T15:28:53.997Z,47.90
2018-10-05T15:32:24.979Z,48.70
2018-10-05T15:37:21.486Z,48.80
2018-10-05T15:39:50.092Z,49.00
2018-10-05T15:42:18.296Z,49.50
2018-10-05T15:47:15.721Z,50.10
2018-10-05T15:49:44.364Z,50.20
2018-10-05T15:52:12.482Z,50.40
2018-10-05T15:54:40.773Z,50.30
2018-10-05T15:57:08.929Z,50.40
2018-10-05T15:59:37.676Z,51.10
2018-10-05T16:04:37.365Z,51.80
2018-10-05T16:07:05.440Z,51.50
2018-10-05T16:09:33.560Z,52.00
2018-10-05T16:12:01.622Z,52.20
2018-10-05T16:14:29.672Z,52.20
2018-10-05T16:19:25.799Z,52.70
2018-10-05T16:21:53.852Z,52.90
2018-10-05T16:24:26.821Z,52.80
2018-10-05T16:26:54.972Z,52.90
2018-10-05T16:31:51.048Z,53.70
2018-10-05T16:34:19.139Z,54.00
2018-10-05T16:39:14.964Z,53.90
2018-10-05T16:41:43.008Z,54.30
2018-10-05T16:46:40.040Z,54.40
2018-10-05T16:49:09.752Z,54.30
2018-10-05T16:54:06.192Z,54.70
2018-10-05T16:56:34.331Z,55.20
2018-10-05T17:01:30.442Z,55.10
2018-10-05T17:03:58.909Z,55.30
2018-10-05T17:06:27.260Z,55.50
2018-10-05T17:08:58.936Z,55.50
2018-10-05T17:11:26.938Z,55.70
2018-10-05T17:16:23.106Z,56.30
2018-10-05T17:18:52.435Z,56.40
2018-10-05T17:21:20.443Z,56.50
2018-10-05T17:23:48.520Z,56.60
2018-10-05T17:26:16.607Z,57.00
2018-10-05T17:28:44.588Z,57.10
2018-10-05T17:33:40.824Z,57.20
2018-10-05T17:36:09.001Z,57.60
2018-10-05T17:38:37.248Z,57.70
2018-10-05T17:41:07.621Z,57.70
2018-10-05T17:43:35.892Z,57.50
2018-10-05T17:46:04.043Z,57.50
2018-10-05T17:48:32.323Z,57.70
2018-10-05T17:51:00.489Z,57.80
2018-10-05T17:53:28.838Z,58.00
2018-10-05T17:58:24.944Z,58.50
2018-10-05T18:00:52.977Z,58.50
2018-10-05T18:03:20.944Z,58.80
2018-10-05T18:05:49.130Z,58.70
2018-10-05T18:13:13.194Z,58.90
2018-10-05T18:15:41.396Z,59.00
2018-10-05T18:20:37.556Z,59.10
2018-10-05T18:23:06.856Z,59.50
2018-10-05T18:35:26.668Z,60.00
2018-10-05T18:37:54.953Z,60.50
2018-10-05T18:40:23.056Z,60.60
2018-10-05T18:42:51.117Z,60.60
2018-10-05T18:45:19.077Z,61.00
2018-10-05T18:55:12.264Z,60.70
2018-10-05T19:02:36.319Z,61.40
2018-10-05T19:05:04.631Z,61.40
2018-10-05T19:07:32.762Z,61.40
2018-10-05T19:10:00.812Z,61.40
2018-10-05T19:12:28.963Z,61.80
2018-10-05T19:14:57.557Z,61.90
2018-10-05T19:17:25.967Z,62.10
2018-10-05T19:19:54.015Z,62.20
2018-10-05T19:24:50.148Z,62.60
2018-10-05T19:27:19.055Z,62.70
2018-10-05T19:29:47.264Z,63.00
2018-10-05T19:32:15.295Z,62.80
2018-10-05T19:37:11.432Z,63.40
2018-10-05T19:39:39.564Z,63.40
2018-10-05T19:44:36.579Z,63.20
2018-10-05T19:47:04.688Z,63.40
2018-10-05T19:54:28.548Z,63.80
2018-10-05T19:56:56.739Z,63.60
2018-10-05T19:59:24.973Z,63.70
2018-10-05T20:06:49.233Z,63.80
2018-10-05T20:11:45.344Z,63.90
2018-10-05T20:14:13.497Z,63.80
2018-10-05T20:16:41.477Z,63.90
2018-10-05T20:19:09.577Z,64.40
2018-10-05T20:21:38.472Z,64.50
2018-10-05T20:24:06.954Z,64.50
2018-10-05T20:26:35.068Z,64.50
2018-10-05T20:29:03.094Z,64.60
2018-10-05T20:33:59.036Z,64.40
2018-10-05T20:38:55.234Z,64.30
2018-10-05T20:41:23.620Z,64.50
2018-10-05T20:43:51.881Z,64.40
2018-10-05T20:51:15.725Z,64.10
2018-10-05T20:53:43.781Z,64.00
2018-10-05T20:58:39.730Z,64.50
2018-10-05T21:01:08.097Z,64.70
2018-10-05T21:03:36.780Z,64.60
2018-10-05T21:06:05.064Z,64.90
2018-10-05T21:11:01.880Z,64.60
2018-10-05T21:13:29.904Z,64.80
2018-10-05T21:15:57.884Z,64.80
2018-10-05T21:18:26.111Z,64.90
2018-10-05T21:23:22.187Z,64.80
2018-10-05T21:28:18.333Z,64.70
2018-10-05T21:30:46.461Z,64.70
2018-10-05T21:43:07.096Z,64.50
2018-10-05T21:45:35.149Z,64.50
2018-10-05T21:50:31.599Z,64.40
2018-10-05T21:55:27.776Z,64.60
2018-10-05T21:57:55.772Z,64.80
2018-10-05T22:02:51.933Z,64.80
2018-10-05T22:05:19.943Z,64.80
2018-10-05T22:07:48.075Z,64.90
2018-10-05T22:10:17.151Z,64.80
2018-10-05T22:15:13.220Z,65.20
2018-10-05T22:17:41.309Z,65.50
2018-10-05T22:22:37.440Z,65.40
2018-10-05T22:25:05.484Z,65.50
2018-10-05T22:27:35.789Z,65.40
2018-10-05T22:30:04.700Z,65.30
2018-10-05T22:35:00.920Z,65.80
2018-10-05T22:39:56.847Z,65.90
2018-10-05T22:42:25.196Z,65.80
2018-10-05T22:44:53.504Z,65.90
2018-10-05T22:49:49.580Z,65.80
2018-10-05T22:52:17.652Z,66.00
2018-10-05T22:54:45.816Z,65.80
2018-10-05T22:57:13.830Z,65.90
2018-10-05T23:02:10.009Z,66.10
2018-10-05T23:04:38.008Z,66.70
2018-10-05T23:09:34.187Z,66.30
2018-10-05T23:12:02.248Z,66.30
2018-10-05T23:14:31.277Z,66.80
2018-10-05T23:19:27.478Z,66.70
2018-10-05T23:29:19.883Z,67.40
2018-10-05T23:31:48.071Z,67.70
2018-10-05T23:34:16.606Z,67.70
2018-10-05T23:39:12.936Z,67.80
2018-10-05T23:41:40.953Z,67.80
2018-10-05T23:46:37.122Z,68.00
2018-10-05T23:49:05.261Z,67.70
2018-10-05T23:51:33.524Z,67.80
2018-10-05T23:54:04.219Z,67.80
2018-10-05T23:59:00.175Z,68.30
